Time;durP1;ratioP1;P1;durP2;ratioP2;P2;SDS_P1;SDS_P2;PMS_P1;PMS_P2;Temp;Humidity;BMP_temperature;BMP_pressure;BME280_temperature;BME280_humidity;BME280_pressure;Samples;Min_cycle;Max_cycle;Signal;HPM_P1;HPM_P2
2021/06/13 00:01:38;;;;;;;19.63;9.30;;;10.90;99.90;;;;;;5023446;28;20132;-49
2021/06/13 00:04:05;;;;;;;15.93;9.15;;;10.80;99.90;;;;;;5026315;28;20119;-51
2021/06/13 00:06:32;;;;;;;16.27;9.15;;;10.80;99.90;;;;;;5020269;28;20045;-46
2021/06/13 00:08:58;;;;;;;16.13;8.98;;;10.80;99.90;;;;;;5006810;28;20042;-49
2021/06/13 00:11:24;;;;;;;21.75;9.80;;;10.70;99.90;;;;;;5009920;28;20386;-47
2021/06/13 00:13:51;;;;;;;18.48;9.68;;;10.70;99.90;;;;;;5024823;28;20045;-50
2021/06/13 00:16:18;;;;;;;16.05;9.05;;;10.60;99.90;;;;;;5017357;28;20069;-48
2021/06/13 00:18:46;;;;;;;19.23;8.90;;;10.60;99.90;;;;;;5008896;28;20078;-51
2021/06/13 00:21:13;;;;;;;21.42;10.00;;;10.70;99.90;;;;;;5015109;28;20829;-49
2021/06/13 00:23:42;;;;;;;15.77;9.75;;;10.70;99.90;;;;;;5025036;28;20054;-49
2021/06/13 00:26:09;;;;;;;17.85;9.85;;;10.70;99.90;;;;;;5029347;28;20042;-52
2021/06/13 00:28:36;;;;;;;19.88;10.95;;;10.70;99.90;;;;;;5028180;28;20065;-48
2021/06/13 00:31:04;;;;;;;18.17;10.80;;;10.70;99.90;;;;;;5027301;28;20144;-48
2021/06/13 00:33:30;;;;;;;18.00;10.60;;;10.70;99.90;;;;;;5028100;28;20049;-51
2021/06/13 00:35:56;;;;;;;20.00;10.85;;;10.70;99.90;;;;;;5044672;28;20049;-49
2021/06/13 00:38:23;;;;;;;20.42;10.82;;;10.70;99.90;;;;;;5026699;28;20095;-47
2021/06/13 00:40:49;;;;;;;17.17;10.15;;;10.60;99.90;;;;;;5025183;28;20045;-50
2021/06/13 00:43:18;;;;;;;17.60;11.13;;;10.60;99.90;;;;;;4992090;28;20046;-50
2021/06/13 00:45:44;;;;;;;17.88;11.23;;;10.60;99.90;;;;;;5022367;28;20057;-49
2021/06/13 00:48:10;;;;;;;16.70;11.10;;;10.60;99.90;;;;;;5012351;28;20393;-50
2021/06/13 00:50:43;;;;;;;21.58;11.35;;;10.60;99.90;;;;;;5015811;28;20107;-46
2021/06/13 00:53:10;;;;;;;20.13;11.77;;;10.60;99.90;;;;;;5028509;28;20046;-48
2021/06/13 00:55:42;;;;;;;19.05;11.02;;;10.60;99.90;;;;;;5030159;28;20358;-47
2021/06/13 00:58:12;;;;;;;22.42;11.80;;;10.60;99.90;;;;;;5028563;28;20073;-48
2021/06/13 01:00:39;;;;;;;16.67;10.80;;;10.60;99.90;;;;;;5010059;28;20056;-51
2021/06/13 01:03:07;;;;;;;19.83;11.55;;;10.60;99.90;;;;;;5027213;28;20394;-50
2021/06/13 01:05:34;;;;;;;16.70;10.15;;;10.60;99.90;;;;;;5025253;28;20050;-49
2021/06/13 01:08:35;;;;;;;20.15;12.18;;;10.50;99.90;;;;;;5021160;28;20056;-46
2021/06/13 01:11:29;;;;;;;18.45;10.88;;;10.50;99.90;;;;;;5027453;28;20512;-49
2021/06/13 01:14:06;;;;;;;19.80;12.20;;;10.60;99.90;;;;;;5027252;28;20049;-50
2021/06/13 01:17:05;;;;;;;21.15;12.50;;;10.50;99.90;;;;;;5025067;28;20116;-49
2021/06/13 01:20:07;;;;;;;16.95;11.35;;;10.50;99.90;;;;;;5025907;28;20045;-46
2021/06/13 01:22:57;;;;;;;22.45;12.00;;;10.40;99.90;;;;;;5014566;28;20042;-48
2021/06/13 01:25:45;;;;;;;16.85;10.30;;;10.40;99.90;;;;;;5007550;28;20050;-48
2021/06/13 01:28:52;;;;;;;18.50;10.80;;;10.30;99.90;;;;;;5031432;28;20056;-47
2021/06/13 01:31:24;;;;;;;17.10;11.15;;;10.30;99.90;;;;;;5008680;28;20038;-53
2021/06/13 01:33:53;;;;;;;21.42;12.02;;;10.20;99.90;;;;;;5021009;28;20534;-46
2021/06/13 01:36:21;;;;;;;20.70;11.48;;;10.20;99.90;;;;;;5007312;28;20454;-55
2021/06/13 01:38:48;;;;;;;20.77;11.40;;;10.20;99.90;;;;;;5023903;28;20046;-45
2021/06/13 01:41:21;;;;;;;17.55;10.82;;;10.10;99.90;;;;;;5025790;28;20081;-53
2021/06/13 01:43:54;;;;;;;20.05;10.95;;;10.10;99.90;;;;;;5026815;28;20168;-48
2021/06/13 01:46:22;;;;;;;18.00;10.93;;;10.10;99.90;;;;;;5024207;28;20045;-51
2021/06/13 01:48:49;;;;;;;19.75;11.93;;;10.10;99.90;;;;;;5015931;28;20470;-48
2021/06/13 01:51:17;;;;;;;19.20;11.10;;;10.10;99.90;;;;;;5026319;28;20052;-49
2021/06/13 01:53:46;;;;;;;18.02;11.40;;;10.00;99.90;;;;;;5011405;28;20057;-47
2021/06/13 01:56:21;;;;;;;22.15;12.10;;;10.00;99.90;;;;;;5015911;28;20486;-53
2021/06/13 01:58:48;;;;;;;18.75;11.80;;;10.00;99.90;;;;;;5023660;28;20481;-46
2021/06/13 02:01:34;;;;;;;19.15;11.07;;;10.10;99.90;;;;;;5027327;28;20072;-45
2021/06/13 02:04:03;;;;;;;20.05;11.38;;;10.00;99.90;;;;;;5025938;28;20049;-48
2021/06/13 02:06:58;;;;;;;21.42;11.70;;;10.00;99.90;;;;;;5026223;28;20748;-48
2021/06/13 02:09:29;;;;;;;22.48;12.35;;;10.00;99.90;;;;;;5007233;28;20049;-44
2021/06/13 02:12:05;;;;;;;20.20;11.55;;;10.00;99.90;;;;;;5006324;28;20038;-46
2021/06/13 02:14:38;;;;;;;23.23;12.55;;;10.00;99.90;;;;;;5010986;28;20516;-46
2021/06/13 02:17:07;;;;;;;17.33;9.82;;;10.00;99.90;;;;;;5025778;28;20041;-49
2021/06/13 02:19:44;;;;;;;18.75;11.40;;;10.00;99.90;;;;;;5006760;28;20045;-51
2021/06/13 02:22:19;;;;;;;16.33;11.38;;;10.00;99.90;;;;;;5007145;28;20072;-56
2021/06/13 02:24:46;;;;;;;19.38;12.32;;;10.00;99.90;;;;;;5014003;28;20037;-47
2021/06/13 02:27:17;;;;;;;22.55;12.52;;;9.90;99.90;;;;;;5026311;28;20397;-49
2021/06/13 02:29:48;;;;;;;22.75;12.18;;;9.90;99.90;;;;;;5026912;28;20366;-54
2021/06/13 02:32:16;;;;;;;25.10;12.30;;;9.90;99.90;;;;;;5017840;28;20549;-51
2021/06/13 02:34:46;;;;;;;23.00;12.57;;;9.90;99.90;;;;;;5014446;28;20057;-45
2021/06/13 02:37:17;;;;;;;21.88;11.77;;;9.90;99.90;;;;;;5017941;28;20046;-46
2021/06/13 02:39:46;;;;;;;23.30;12.15;;;9.90;99.90;;;;;;5017904;28;20047;-49
2021/06/13 02:42:21;;;;;;;18.73;12.25;;;9.90;99.90;;;;;;5024970;28;20072;-53
2021/06/13 02:44:52;;;;;;;20.00;12.77;;;9.90;99.90;;;;;;5013998;28;20140;-52
2021/06/13 02:47:21;;;;;;;19.05;11.45;;;9.90;99.90;;;;;;5016505;28;20034;-46
2021/06/13 02:49:47;;;;;;;18.92;11.50;;;9.90;99.90;;;;;;5005439;28;20046;-48
2021/06/13 02:52:25;;;;;;;18.25;12.52;;;9.90;99.90;;;;;;5009332;28;20041;-48
2021/06/13 02:54:57;;;;;;;21.10;12.15;;;9.90;99.90;;;;;;5027118;28;20045;-51
2021/06/13 02:57:31;;;;;;;21.80;11.88;;;9.90;99.90;;;;;;5025490;28;20050;-46
2021/06/13 03:00:01;;;;;;;19.33;11.50;;;9.90;99.90;;;;;;5025119;28;20045;-48
2021/06/13 03:02:34;;;;;;;20.35;11.90;;;9.90;99.90;;;;;;5020148;28;20153;-49
2021/06/13 03:05:04;;;;;;;22.23;12.80;;;9.90;99.90;;;;;;5026310;28;20469;-51
2021/06/13 03:07:31;;;;;;;21.08;11.85;;;9.80;99.90;;;;;;5014704;28;20556;-47
2021/06/13 03:10:03;;;;;;;17.17;11.65;;;9.80;99.90;;;;;;5004529;28;20045;-53
2021/06/13 03:12:30;;;;;;;19.95;11.43;;;9.70;99.90;;;;;;5006865;28;20565;-48
2021/06/13 03:14:58;;;;;;;19.20;12.25;;;9.60;99.90;;;;;;5005713;28;20053;-45
2021/06/13 03:17:28;;;;;;;23.23;13.10;;;9.60;99.90;;;;;;5014133;28;20536;-46
2021/06/13 03:19:56;;;;;;;17.23;11.75;;;9.60;99.90;;;;;;5023997;28;20053;-49
2021/06/13 03:22:23;;;;;;;18.77;11.00;;;9.60;99.90;;;;;;5019684;28;20048;-51
2021/06/13 03:24:52;;;;;;;19.88;11.55;;;9.60;99.90;;;;;;5004789;28;20050;-50
2021/06/13 03:27:19;;;;;;;17.58;11.68;;;9.50;99.90;;;;;;5005566;28;20126;-54
2021/06/13 03:29:48;;;;;;;22.45;11.63;;;9.50;99.90;;;;;;5009060;28;20073;-48
2021/06/13 03:32:20;;;;;;;20.90;11.68;;;9.50;99.90;;;;;;5019941;28;20037;-48
2021/06/13 03:34:48;;;;;;;20.75;12.20;;;9.50;99.90;;;;;;5004331;28;20046;-46
2021/06/13 03:37:17;;;;;;;23.70;11.55;;;9.50;99.90;;;;;;5007007;28;20054;-49
2021/06/13 03:39:45;;;;;;;18.63;11.13;;;9.50;99.90;;;;;;5024828;28;20561;-48
2021/06/13 03:42:13;;;;;;;22.20;11.93;;;9.60;99.90;;;;;;5029223;28;20048;-47
2021/06/13 03:44:41;;;;;;;22.38;12.25;;;9.50;99.90;;;;;;5018141;28;20034;-55
2021/06/13 03:47:08;;;;;;;20.05;12.93;;;9.60;99.90;;;;;;5019703;28;20045;-52
2021/06/13 03:49:35;;;;;;;20.70;11.85;;;9.70;99.90;;;;;;5033049;28;20049;-51
2021/06/13 03:52:02;;;;;;;22.52;11.85;;;9.60;99.90;;;;;;5024113;28;20533;-53
2021/06/13 03:54:30;;;;;;;20.25;12.18;;;9.70;99.90;;;;;;5016601;28;20478;-48
2021/06/13 03:57:01;;;;;;;21.70;10.70;;;9.80;99.90;;;;;;5010390;28;20050;-48
2021/06/13 03:59:31;;;;;;;17.48;10.50;;;9.80;99.90;;;;;;5027325;28;20088;-48
2021/06/13 04:02:01;;;;;;;20.13;11.55;;;9.80;99.90;;;;;;5033057;28;20480;-55
2021/06/13 04:04:30;;;;;;;18.42;10.80;;;9.90;99.90;;;;;;5012177;28;20096;-49
2021/06/13 04:06:57;;;;;;;17.33;11.07;;;9.90;99.90;;;;;;5011744;28;20056;-48
2021/06/13 04:09:24;;;;;;;21.75;12.77;;;9.90;99.90;;;;;;5009277;28;20049;-52
2021/06/13 04:11:51;;;;;;;18.73;13.23;;;10.00;99.90;;;;;;5014985;28;20084;-53
2021/06/13 04:14:18;;;;;;;19.02;12.85;;;10.10;99.90;;;;;;5009789;28;20049;-48
2021/06/13 04:16:48;;;;;;;19.90;12.38;;;10.20;99.90;;;;;;5009778;28;20129;-50
2021/06/13 04:19:21;;;;;;;16.27;11.30;;;10.30;99.90;;;;;;5011213;28;20081;-53
2021/06/13 04:21:49;;;;;;;20.77;12.10;;;10.30;99.90;;;;;;5023596;28;20450;-47
2021/06/13 04:24:20;;;;;;;21.60;12.57;;;10.40;99.90;;;;;;5029576;28;20045;-49
2021/06/13 04:26:48;;;;;;;21.23;12.80;;;10.40;99.90;;;;;;5029582;28;20122;-50
2021/06/13 04:29:14;;;;;;;21.15;12.10;;;10.40;99.90;;;;;;5032920;28;20349;-52
2021/06/13 04:31:41;;;;;;;19.77;13.20;;;10.50;99.90;;;;;;5032921;28;20047;-53
2021/06/13 04:34:07;;;;;;;20.55;12.57;;;10.60;99.90;;;;;;5028174;28;20124;-47
2021/06/13 04:36:33;;;;;;;23.55;12.90;;;10.60;99.90;;;;;;5031274;28;20048;-54
2021/06/13 04:39:00;;;;;;;24.83;13.30;;;10.70;99.90;;;;;;5010987;28;20046;-49
2021/06/13 04:41:33;;;;;;;17.80;11.50;;;10.80;99.90;;;;;;5009386;28;20156;-45
2021/06/13 04:44:00;;;;;;;19.23;11.85;;;10.90;99.90;;;;;;5012786;28;20501;-53
2021/06/13 04:46:28;;;;;;;20.33;12.50;;;11.10;99.90;;;;;;5029929;28;20045;-46
2021/06/13 04:48:58;;;;;;;21.83;12.65;;;11.10;99.90;;;;;;5020893;28;20046;-53
2021/06/13 04:51:26;;;;;;;21.35;13.18;;;11.30;99.90;;;;;;5009658;28;20112;-50
2021/06/13 04:53:59;;;;;;;19.92;12.35;;;11.40;99.90;;;;;;5026311;28;20055;-51
2021/06/13 04:56:44;;;;;;;24.75;12.70;;;11.50;99.90;;;;;;5028739;28;20076;-52
2021/06/13 04:59:11;;;;;;;19.45;11.75;;;11.60;99.90;;;;;;5034875;28;20052;-49
2021/06/13 05:01:41;;;;;;;21.10;11.70;;;11.70;99.90;;;;;;5029785;28;20052;-46
2021/06/13 05:04:07;;;;;;;21.73;11.45;;;11.90;99.90;;;;;;5020343;28;20494;-47
2021/06/13 05:06:34;;;;;;;22.00;12.65;;;12.00;99.90;;;;;;5015507;28;20045;-48
2021/06/13 05:09:03;;;;;;;16.88;10.45;;;12.30;99.90;;;;;;5032953;28;20045;-46
2021/06/13 05:11:29;;;;;;;18.00;10.52;;;12.70;99.90;;;;;;5028990;28;20041;-50
2021/06/13 05:13:58;;;;;;;19.70;10.07;;;13.10;99.90;;;;;;5027961;28;20549;-50
2021/06/13 05:16:24;;;;;;;14.05;9.52;;;13.50;99.90;;;;;;5030726;28;20390;-48
2021/06/13 05:18:50;;;;;;;16.23;10.02;;;13.90;99.90;;;;;;5025010;28;20128;-52
2021/06/13 05:21:16;;;;;;;14.32;9.70;;;14.20;99.90;;;;;;5026734;28;20436;-49
2021/06/13 05:23:45;;;;;;;16.52;9.63;;;14.40;99.90;;;;;;5013079;28;20057;-54
2021/06/13 05:26:13;;;;;;;16.58;8.85;;;14.60;99.90;;;;;;5027643;28;20051;-50
2021/06/13 05:28:39;;;;;;;14.50;8.85;;;14.70;99.90;;;;;;5017157;28;20045;-56
2021/06/13 05:31:06;;;;;;;21.50;10.02;;;14.90;99.90;;;;;;5021146;28;20045;-54
2021/06/13 05:33:32;;;;;;;16.73;9.27;;;15.20;99.90;;;;;;5024878;28;20042;-47
2021/06/13 05:36:01;;;;;;;40.97;32.22;;;15.30;99.90;;;;;;5027556;28;20045;-54
2021/06/13 05:38:28;;;;;;;15.80;9.15;;;15.50;99.90;;;;;;5026984;28;20556;-50
2021/06/13 05:40:55;;;;;;;23.05;15.00;;;15.60;99.90;;;;;;5028108;28;20049;-50
2021/06/13 05:43:21;;;;;;;15.23;8.38;;;15.80;99.00;;;;;;5026881;28;20713;-52
2021/06/13 05:45:47;;;;;;;13.75;7.93;;;16.00;98.30;;;;;;5023504;28;20401;-52
2021/06/13 05:48:14;;;;;;;14.48;8.20;;;16.20;98.10;;;;;;5028369;28;20046;-47
2021/06/13 05:50:40;;;;;;;11.98;7.78;;;16.20;97.50;;;;;;5024042;28;20038;-53
2021/06/13 05:53:09;;;;;;;17.05;10.73;;;16.50;96.50;;;;;;5022931;28;20041;-49
2021/06/13 05:55:35;;;;;;;13.07;7.30;;;16.50;95.10;;;;;;5020567;28;20041;-53
2021/06/13 05:58:02;;;;;;;30.27;22.23;;;16.60;96.30;;;;;;5026576;28;20054;-54
2021/06/13 06:00:33;;;;;;;14.88;8.07;;;16.90;95.90;;;;;;5026219;28;20178;-48
2021/06/13 06:03:00;;;;;;;13.70;8.40;;;17.00;93.00;;;;;;5015664;28;20046;-54
2021/06/13 06:05:26;;;;;;;13.32;7.07;;;17.30;94.70;;;;;;5022132;28;20048;-53
2021/06/13 06:07:53;;;;;;;19.27;7.72;;;17.40;92.90;;;;;;5011175;28;20621;-48
2021/06/13 06:10:21;;;;;;;14.30;6.72;;;17.60;91.70;;;;;;5007910;28;20057;-50
2021/06/13 06:12:48;;;;;;;11.32;5.93;;;17.60;92.80;;;;;;5012676;28;20048;-47
2021/06/13 06:15:20;;;;;;;13.07;6.70;;;17.80;92.70;;;;;;5026595;28;20203;-58
2021/06/13 06:17:50;;;;;;;20.90;13.98;;;18.00;91.80;;;;;;5027609;28;20057;-50
2021/06/13 06:20:19;;;;;;;17.15;11.55;;;18.30;91.20;;;;;;5029556;28;20037;-47
2021/06/13 06:22:45;;;;;;;12.10;5.97;;;18.30;87.10;;;;;;5023962;28;20049;-53
2021/06/13 06:25:13;;;;;;;15.27;6.22;;;18.40;90.00;;;;;;5025933;28;20072;-56
2021/06/13 06:27:40;;;;;;;12.45;6.18;;;18.60;88.50;;;;;;5027697;28;20516;-50
2021/06/13 06:30:08;;;;;;;9.93;6.05;;;18.80;89.10;;;;;;5028880;28;20042;-46
2021/06/13 06:32:35;;;;;;;11.13;6.47;;;19.30;88.30;;;;;;5024029;28;20049;-59
2021/06/13 06:35:01;;;;;;;13.18;5.43;;;19.40;84.60;;;;;;5025826;28;20053;-51
2021/06/13 06:37:28;;;;;;;11.25;6.05;;;19.40;83.00;;;;;;5025267;28;20057;-50
2021/06/13 06:39:54;;;;;;;13.48;5.90;;;19.60;82.20;;;;;;5017925;28;20260;-52
2021/06/13 06:42:20;;;;;;;14.52;5.80;;;19.40;79.70;;;;;;5025932;28;20056;-57
2021/06/13 06:44:46;;;;;;;9.10;5.18;;;19.10;81.10;;;;;;5025560;28;20050;-51
2021/06/13 06:47:12;;;;;;;15.40;10.05;;;19.50;80.60;;;;;;5032713;28;20077;-52
2021/06/13 06:49:38;;;;;;;17.50;10.27;;;19.70;80.10;;;;;;5028282;28;20116;-49
2021/06/13 06:52:06;;;;;;;12.35;6.22;;;20.00;77.20;;;;;;5013711;28;20053;-57
2021/06/13 06:54:35;;;;;;;10.95;5.68;;;20.10;77.80;;;;;;5027352;28;20034;-48
2021/06/13 06:57:01;;;;;;;8.25;4.55;;;19.80;72.40;;;;;;5015036;28;20759;-48
2021/06/13 06:59:28;;;;;;;11.07;5.97;;;19.70;71.30;;;;;;5016265;28;20050;-49
2021/06/13 07:01:54;;;;;;;9.32;5.72;;;19.40;69.70;;;;;;5030001;28;20045;-50
2021/06/13 07:04:22;;;;;;;14.38;10.00;;;19.60;75.90;;;;;;5024763;28;20057;-57
2021/06/13 07:06:48;;;;;;;9.25;5.25;;;19.80;74.50;;;;;;5014928;28;20472;-50
2021/06/13 07:09:14;;;;;;;8.95;5.63;;;19.30;66.80;;;;;;5010664;28;20605;-51
2021/06/13 07:11:42;;;;;;;7.95;4.60;;;19.60;70.70;;;;;;5017265;28;20176;-56
2021/06/13 07:14:11;;;;;;;11.05;5.50;;;20.00;70.10;;;;;;5025406;28;20060;-50
2021/06/13 07:16:39;;;;;;;14.02;6.60;;;20.00;69.00;;;;;;5026626;28;20053;-45
2021/06/13 07:19:05;;;;;;;10.30;5.20;;;20.30;65.90;;;;;;5023898;28;20060;-55
2021/06/13 07:21:35;;;;;;;10.55;5.25;;;20.40;66.90;;;;;;5009546;28;20053;-52
2021/06/13 07:24:06;;;;;;;11.63;5.38;;;20.40;67.20;;;;;;5025089;28;20037;-48
2021/06/13 07:26:34;;;;;;;;;;;20.40;63.90;;;;;;5008161;28;20042;-49
2021/06/13 07:29:00;;;;;;;13.25;9.65;;;20.50;62.90;;;;;;4989460;28;19921;-53
2021/06/13 07:31:26;;;;;;;11.25;6.22;;;20.90;67.20;;;;;;5007432;28;20061;-48
2021/06/13 07:33:53;;;;;;;10.30;6.55;;;20.80;62.40;;;;;;5008208;28;20050;-50
2021/06/13 07:36:21;;;;;;;8.85;5.00;;;21.00;62.70;;;;;;5006998;28;20133;-46
2021/06/13 07:38:48;;;;;;;10.25;5.68;;;21.10;61.60;;;;;;5007717;28;20046;-45
2021/06/13 07:41:14;;;;;;;36.42;32.33;;;21.30;62.00;;;;;;5011942;28;20584;-49
2021/06/13 07:43:40;;;;;;;8.23;5.40;;;21.40;62.70;;;;;;5006321;28;20088;-48
2021/06/13 07:46:06;;;;;;;18.35;14.98;;;21.40;62.90;;;;;;5011966;28;20045;-46
2021/06/13 07:48:32;;;;;;;10.38;5.38;;;21.30;59.50;;;;;;5025600;28;20103;-58
2021/06/13 07:50:59;;;;;;;10.68;7.53;;;21.30;57.60;;;;;;5024032;28;20238;-52
2021/06/13 07:53:25;;;;;;;11.52;9.48;;;21.50;56.50;;;;;;5010721;28;20145;-53
2021/06/13 07:55:51;;;;;;;11.13;6.68;;;21.20;55.30;;;;;;5013670;28;20045;-49
2021/06/13 07:58:18;;;;;;;7.50;3.80;;;21.40;53.70;;;;;;5021371;28;20053;-54
2021/06/13 08:00:44;;;;;;;6.32;3.33;;;21.60;52.60;;;;;;5025671;28;20069;-49
2021/06/13 08:03:15;;;;;;;10.45;5.57;;;21.70;53.10;;;;;;5025829;28;20619;-49
2021/06/13 08:05:43;;;;;;;14.25;8.57;;;21.70;52.00;;;;;;5017484;28;20061;-57
2021/06/13 08:08:10;;;;;;;22.55;19.65;;;21.70;52.60;;;;;;5023531;28;20532;-52
2021/06/13 08:10:36;;;;;;;8.35;4.78;;;22.00;52.10;;;;;;5029286;28;20374;-52
2021/06/13 08:13:03;;;;;;;10.10;7.45;;;22.10;50.30;;;;;;5030410;28;20474;-51
2021/06/13 08:15:30;;;;;;;10.95;7.88;;;22.00;49.50;;;;;;5029662;28;20853;-58
2021/06/13 08:17:57;;;;;;;9.77;5.82;;;22.40;50.40;;;;;;5023968;28;20046;-51
2021/06/13 08:20:24;;;;;;;11.25;4.43;;;22.40;51.20;;;;;;5022521;28;20470;-50
2021/06/13 08:22:50;;;;;;;9.02;4.85;;;22.30;52.70;;;;;;5021720;28;20095;-57
2021/06/13 08:25:19;;;;;;;9.45;5.80;;;22.20;53.40;;;;;;5023103;28;20139;-49
2021/06/13 08:27:46;;;;;;;11.32;4.85;;;22.40;52.10;;;;;;5028461;28;20065;-55
2021/06/13 08:30:14;;;;;;;10.38;5.75;;;22.50;50.10;;;;;;5026396;28;20045;-50
2021/06/13 08:32:44;;;;;;;9.30;4.65;;;22.70;51.00;;;;;;5027878;28;20401;-53
2021/06/13 08:35:12;;;;;;;9.48;5.50;;;22.60;49.00;;;;;;5018787;28;20545;-55
2021/06/13 08:37:38;;;;;;;9.38;4.75;;;22.60;50.60;;;;;;5027572;28;20059;-49
2021/06/13 08:40:08;;;;;;;11.43;6.53;;;22.80;50.90;;;;;;5027757;28;20041;-48
2021/06/13 08:42:35;;;;;;;11.63;6.75;;;23.20;49.40;;;;;;5027399;28;20045;-50
2021/06/13 08:45:03;;;;;;;12.85;5.72;;;23.20;50.40;;;;;;5029063;28;20045;-52
2021/06/13 08:47:29;;;;;;;9.70;4.68;;;23.30;49.20;;;;;;5023664;28;20065;-53
2021/06/13 08:49:56;;;;;;;11.65;4.93;;;23.20;49.80;;;;;;5014834;28;20144;-53
2021/06/13 08:52:22;;;;;;;7.85;4.70;;;23.10;49.80;;;;;;5010374;28;20050;-48
2021/06/13 08:54:48;;;;;;;9.30;4.80;;;23.10;47.40;;;;;;5028281;28;20049;-46
2021/06/13 08:57:15;;;;;;;12.23;9.00;;;22.80;49.70;;;;;;5025831;28;20045;-54
2021/06/13 08:59:47;;;;;;;9.15;3.83;;;23.10;48.50;;;;;;5043342;28;20045;-48
2021/06/13 09:02:18;;;;;;;;;;;23.20;48.30;;;;;;5027776;28;20049;-47
2021/06/13 09:04:46;;;;;;;9.05;4.55;;;23.20;46.50;;;;;;5027389;28;20015;-50
2021/06/13 09:07:24;;;;;;;10.48;4.80;;;23.10;49.10;;;;;;5027380;28;20034;-48
2021/06/13 09:09:54;;;;;;;9.55;4.65;;;23.10;47.60;;;;;;5026957;28;20033;-49
2021/06/13 09:12:32;;;;;;;10.98;4.30;;;22.90;48.40;;;;;;5028435;28;20041;-53
2021/06/13 09:15:01;;;;;;;7.55;3.95;;;23.30;46.30;;;;;;5028251;28;20049;-56
2021/06/13 09:17:38;;;;;;;8.90;4.93;;;23.50;48.10;;;;;;5029035;28;20041;-50
2021/06/13 09:20:23;;;;;;;9.50;4.18;;;23.30;49.30;;;;;;5027897;28;20041;-48
2021/06/13 09:23:14;;;;;;;7.00;3.63;;;23.80;48.00;;;;;;5028644;28;20045;-49
2021/06/13 09:25:42;;;;;;;7.72;3.50;;;24.20;44.90;;;;;;5020799;28;20041;-50
2021/06/13 09:28:18;;;;;;;7.85;4.00;;;23.70;46.30;;;;;;5022642;28;20763;-53
2021/06/13 09:30:51;;;;;;;7.22;3.65;;;23.30;46.10;;;;;;5024890;28;20172;-49
2021/06/13 09:33:34;;;;;;;8.80;4.00;;;23.80;46.30;;;;;;5028024;28;20128;-52
2021/06/13 09:36:07;;;;;;;7.38;4.15;;;24.20;46.90;;;;;;5007151;28;20050;-55
2021/06/13 09:38:36;;;;;;;8.32;4.15;;;24.40;45.90;;;;;;5021787;28;20041;-47
2021/06/13 09:41:15;;;;;;;7.68;3.88;;;24.70;45.30;;;;;;5030525;28;20164;-51
2021/06/13 09:43:47;;;;;;;7.40;3.80;;;24.30;44.80;;;;;;5025003;28;20559;-50
2021/06/13 09:46:22;;;;;;;8.45;4.18;;;23.90;45.10;;;;;;5023306;28;20132;-50
2021/06/13 09:48:50;;;;;;;10.38;3.72;;;24.00;44.70;;;;;;5022288;28;20064;-50
2021/06/13 09:51:23;;;;;;;12.00;8.65;;;24.30;44.10;;;;;;5015059;28;20045;-57
2021/06/13 09:53:51;;;;;;;7.75;4.43;;;24.80;44.50;;;;;;5021694;28;20517;-56
2021/06/13 09:56:26;;;;;;;10.30;4.43;;;24.90;45.60;;;;;;5024037;28;20207;-56
2021/06/13 09:59:00;;;;;;;;;;;25.50;44.30;;;;;;5024119;28;20174;-55
2021/06/13 10:01:37;;;;;;;13.80;10.45;;;26.10;44.70;;;;;;5019857;28;20400;-55
2021/06/13 10:04:05;;;;;;;6.28;4.05;;;26.00;43.00;;;;;;5024199;28;20049;-56
2021/06/13 10:06:35;;;;;;;9.00;4.55;;;26.10;42.60;;;;;;5018020;28;20045;-54
2021/06/13 10:09:04;;;;;;;7.57;4.15;;;26.00;43.50;;;;;;5022815;28;20401;-57
2021/06/13 10:11:30;;;;;;;7.55;4.40;;;26.20;42.60;;;;;;5020253;28;20104;-56
2021/06/13 10:14:05;;;;;;;8.07;3.78;;;26.10;43.40;;;;;;5026618;28;20045;-56
2021/06/13 10:16:38;;;;;;;7.22;4.22;;;26.00;41.70;;;;;;5026524;28;20049;-59
2021/06/13 10:19:22;;;;;;;7.97;4.53;;;25.80;43.10;;;;;;5025751;28;20073;-49
2021/06/13 10:22:01;;;;;;;9.77;4.53;;;25.60;41.90;;;;;;5023208;28;20053;-56
2021/06/13 10:24:35;;;;;;;11.52;9.27;;;25.70;41.70;;;;;;5021923;28;20489;-47
2021/06/13 10:27:14;;;;;;;8.25;4.35;;;26.20;41.80;;;;;;5026276;28;20045;-51
2021/06/13 10:29:43;;;;;;;7.97;3.40;;;26.10;41.80;;;;;;5028208;28;20120;-53
2021/06/13 10:32:13;;;;;;;7.88;4.00;;;25.90;41.60;;;;;;5026167;28;20149;-49
2021/06/13 10:34:39;;;;;;;7.50;3.80;;;26.50;40.90;;;;;;5022621;28;20077;-51
2021/06/13 10:37:08;;;;;;;5.50;3.42;;;26.60;41.30;;;;;;5023614;28;20136;-56
2021/06/13 10:39:37;;;;;;;5.13;3.10;;;26.60;39.00;;;;;;5025779;28;20144;-56
2021/06/13 10:42:10;;;;;;;7.43;3.78;;;26.90;38.40;;;;;;5024913;28;20053;-54
2021/06/13 10:44:52;;;;;;;9.15;3.25;;;27.00;38.20;;;;;;5022510;28;20136;-47
2021/06/13 10:47:19;;;;;;;8.32;3.75;;;27.10;37.80;;;;;;5024603;28;20111;-47
2021/06/13 10:49:59;;;;;;;10.00;6.32;;;26.40;38.20;;;;;;5025537;28;20045;-50
2021/06/13 10:52:27;;;;;;;21.58;19.48;;;26.40;38.70;;;;;;5024065;28;20042;-60
2021/06/13 10:54:53;;;;;;;14.10;12.65;;;26.30;40.00;;;;;;5019559;28;20385;-47
2021/06/13 10:57:19;;;;;;;7.95;4.38;;;26.40;40.20;;;;;;5023620;28;20056;-56
2021/06/13 10:59:48;;;;;;;9.88;4.85;;;26.80;40.50;;;;;;5023068;28;20045;-52
2021/06/13 11:02:21;;;;;;;9.57;5.20;;;26.80;40.40;;;;;;5028578;28;20053;-57
2021/06/13 11:04:52;;;;;;;9.57;5.43;;;26.80;40.20;;;;;;5024384;28;20054;-50
2021/06/13 11:07:34;;;;;;;9.10;4.15;;;26.80;41.10;;;;;;5024209;28;20569;-47
2021/06/13 11:10:08;;;;;;;9.02;4.13;;;26.50;39.40;;;;;;5014781;28;20045;-58
2021/06/13 11:13:01;;;;;;;9.20;4.85;;;26.70;41.10;;;;;;5024650;28;20471;-55
2021/06/13 11:15:30;;;;;;;7.97;4.00;;;26.20;40.30;;;;;;5021445;28;20048;-47
2021/06/13 11:18:19;;;;;;;9.88;3.95;;;25.80;41.10;;;;;;5023382;28;20045;-54
2021/06/13 11:20:54;;;;;;;6.80;4.25;;;26.30;42.70;;;;;;5025644;28;20061;-53
2021/06/13 11:23:23;;;;;;;6.93;3.47;;;26.90;42.10;;;;;;5031316;28;20831;-55
2021/06/13 11:25:54;;;;;;;8.50;4.68;;;27.20;41.70;;;;;;5021816;28;20045;-46
2021/06/13 11:28:24;;;;;;;7.40;4.07;;;27.50;39.00;;;;;;5024028;28;20060;-55
2021/06/13 11:31:09;;;;;;;9.77;3.70;;;27.50;38.60;;;;;;5024735;28;20130;-56
2021/06/13 11:33:40;;;;;;;10.25;4.43;;;27.80;40.10;;;;;;5027586;28;20075;-51
2021/06/13 11:36:28;;;;;;;8.43;4.65;;;27.60;40.10;;;;;;5025278;28;20091;-44
2021/06/13 11:39:06;;;;;;;10.80;5.45;;;27.70;38.30;;;;;;5023777;28;20064;-52
2021/06/13 11:41:43;;;;;;;7.25;3.80;;;27.70;39.90;;;;;;5024017;28;20049;-51
2021/06/13 11:44:39;;;;;;;8.35;4.32;;;27.50;39.30;;;;;;5024882;28;20689;-50
2021/06/13 11:47:31;;;;;;;11.65;7.57;;;28.00;37.90;;;;;;5027441;28;20179;-52
2021/06/13 11:50:00;;;;;;;9.25;6.07;;;28.20;38.80;;;;;;5023248;28;20050;-51
2021/06/13 11:53:02;;;;;;;9.60;5.18;;;27.50;39.20;;;;;;5023458;28;20041;-50
2021/06/13 11:55:48;;;;;;;8.30;4.20;;;27.80;37.60;;;;;;5025045;28;20092;-48
2021/06/13 11:58:14;;;;;;;11.75;6.85;;;28.10;37.90;;;;;;5022817;28;20149;-52
2021/06/13 12:00:41;;;;;;;10.05;4.32;;;28.40;39.10;;;;;;5013456;28;20049;-53
2021/06/13 12:03:07;;;;;;;8.48;3.95;;;28.00;39.90;;;;;;4995906;28;20053;-55
2021/06/13 12:05:33;;;;;;;9.48;4.65;;;28.30;39.30;;;;;;5007806;28;20140;-50
2021/06/13 12:08:02;;;;;;;6.43;4.18;;;28.30;38.60;;;;;;5021505;28;20057;-48
2021/06/13 12:10:31;;;;;;;7.18;4.18;;;27.50;37.70;;;;;;4993374;28;20414;-52
2021/06/13 12:13:13;;;;;;;6.88;3.70;;;27.20;38.90;;;;;;5012020;28;20050;-56
2021/06/13 12:15:39;;;;;;;9.20;4.60;;;27.20;38.60;;;;;;5014874;28;20038;-48
2021/06/13 12:18:14;;;;;;;8.18;4.00;;;27.60;40.40;;;;;;5019635;28;20441;-54
2021/06/13 12:20:40;;;;;;;6.13;3.75;;;28.00;39.50;;;;;;5018560;28;20045;-51
2021/06/13 12:23:11;;;;;;;8.23;4.75;;;28.00;39.80;;;;;;5024127;28;20057;-52
2021/06/13 12:28:30;;;;;;;7.68;4.40;;;27.90;39.40;;;;;;5019136;28;20045;-49
2021/06/13 12:30:56;;;;;;;8.32;4.22;;;28.00;40.30;;;;;;5022039;28;20049;-48
2021/06/13 12:33:25;;;;;;;8.52;3.90;;;27.30;39.60;;;;;;5036121;28;20088;-57
2021/06/13 12:35:53;;;;;;;10.95;5.85;;;26.30;39.40;;;;;;5026343;28;20049;-55
2021/06/13 12:38:23;;;;;;;9.43;3.95;;;26.60;40.40;;;;;;5031307;28;20568;-54
2021/06/13 12:40:55;;;;;;;15.32;11.10;;;26.90;41.30;;;;;;5027436;28;20076;-53
2021/06/13 12:43:53;;;;;;;9.63;4.80;;;26.40;40.70;;;;;;5022692;28;20046;-48
2021/06/13 12:46:22;;;;;;;7.13;3.95;;;26.90;41.20;;;;;;4998215;28;20049;-49
2021/06/13 12:48:56;;;;;;;9.25;4.40;;;27.40;42.10;;;;;;5007983;28;20502;-45
2021/06/13 12:51:26;;;;;;;8.70;4.13;;;27.20;40.40;;;;;;5003792;28;20049;-49
2021/06/13 12:53:56;;;;;;;;;;;27.60;39.60;;;;;;4999794;28;20045;-54
2021/06/13 12:56:22;;;;;;;8.13;3.85;;;27.10;38.40;;;;;;5008664;28;19976;-50
2021/06/13 12:58:48;;;;;;;8.00;4.55;;;27.30;41.80;;;;;;5006440;28;20045;-49